Terminal Aerodrome Forecast
Issued by NWS Blacksburg, VA

Current Version | Previous Version | Text Only | Print | Product List | Glossary On
Versions: 1 2 3 4 5 6 7 8 9 10 11 12 13 14 15 16 17 18 19 20 21 22 23 24
584
FTUS41 KRNK 082335
TAFLYH
TAF
KLYH 082335Z 0900/0924 22003KT P6SM OVC019
     FM090400 31004KT P6SM BKN080
     FM091600 27008KT P6SM BKN050=

USA.gov is the U.S. government's official web portal to all federal, state and local government web resources and services.